sensor_id;sensor_type;location;lat;lon;timestamp;pressure;altitude;pressure_sealevel;temperature;humidity
47815;BME280;33579;50.058;18.130;2023-01-31T00:00:46;98642.34;;;2.12;100.00
47815;BME280;33579;50.058;18.130;2023-01-31T00:01:48;98640.19;;;2.18;100.00
47815;BME280;33579;50.058;18.130;2023-01-31T00:02:49;98635.09;;;2.17;100.00
47815;BME280;33579;50.058;18.130;2023-01-31T00:03:53;98636.75;;;2.18;100.00
47815;BME280;33579;50.058;18.130;2023-01-31T00:04:54;98640.09;;;2.20;100.00
47815;BME280;33579;50.058;18.130;2023-01-31T00:05:56;98633.22;;;2.19;100.00
47815;BME280;33579;50.058;18.130;2023-01-31T00:06:58;98645.28;;;2.20;100.00
47815;BME280;33579;50.058;18.130;2023-01-31T00:07:59;98643.41;;;2.22;100.00
47815;BME280;33579;50.058;18.130;2023-01-31T00:09:03;98643.91;;;2.29;100.00
47815;BME280;33579;50.058;18.130;2023-01-31T00:10:05;98636.72;;;2.32;100.00
47815;BME280;33579;50.058;18.130;2023-01-31T00:11:07;98646.00;;;2.36;100.00
47815;BME280;33579;50.058;18.130;2023-01-31T00:12:18;98640.63;;;2.39;100.00
47815;BME280;33579;50.058;18.130;2023-01-31T00:13:19;98653.31;;;2.44;100.00
47815;BME280;33579;50.058;18.130;2023-01-31T00:14:21;98653.03;;;2.49;100.00
47815;BME280;33579;50.058;18.130;2023-01-31T00:15:23;98655.63;;;2.49;100.00
47815;BME280;33579;50.058;18.130;2023-01-31T00:16:25;98655.63;;;2.49;100.00
47815;BME280;33579;50.058;18.130;2023-01-31T00:17:27;98659.91;;;2.50;100.00
47815;BME280;33579;50.058;18.130;2023-01-31T00:18:29;98659.97;;;2.48;100.00
47815;BME280;33579;50.058;18.130;2023-01-31T00:19:31;98662.56;;;2.48;100.00
47815;BME280;33579;50.058;18.130;2023-01-31T00:20:32;98662.66;;;2.47;100.00
47815;BME280;33579;50.058;18.130;2023-01-31T00:21:34;98665.91;;;2.50;100.00
47815;BME280;33579;50.058;18.130;2023-01-31T00:22:36;98662.50;;;2.50;100.00
47815;BME280;33579;50.058;18.130;2023-01-31T00:23:39;98662.50;;;2.50;100.00
47815;BME280;33579;50.058;18.130;2023-01-31T00:24:42;98668.78;;;2.46;100.00
47815;BME280;33579;50.058;18.130;2023-01-31T00:25:44;98673.25;;;2.44;100.00
47815;BME280;33579;50.058;18.130;2023-01-31T00:26:46;98677.69;;;2.42;100.00
47815;BME280;33579;50.058;18.130;2023-01-31T00:27:48;98674.28;;;2.41;100.00
47815;BME280;33579;50.058;18.130;2023-01-31T00:28:51;98682.97;;;2.40;100.00
47815;BME280;33579;50.058;18.130;2023-01-31T00:29:53;98689.28;;;2.36;100.00
47815;BME280;33579;50.058;18.130;2023-01-31T00:30:57;98705.81;;;2.35;100.00
47815;BME280;33579;50.058;18.130;2023-01-31T00:31:59;98712.41;;;2.26;100.00
47815;BME280;33579;50.058;18.130;2023-01-31T00:33:00;98718.06;;;2.18;100.00
47815;BME280;33579;50.058;18.130;2023-01-31T00:34:03;98722.19;;;2.06;100.00
47815;BME280;33579;50.058;18.130;2023-01-31T00:35:05;98726.19;;;1.98;100.00
47815;BME280;33579;50.058;18.130;2023-01-31T00:36:09;98721.78;;;1.83;100.00
47815;BME280;33579;50.058;18.130;2023-01-31T00:37:11;98724.22;;;1.87;100.00
47815;BME280;33579;50.058;18.130;2023-01-31T00:38:13;98714.88;;;1.84;100.00
47815;BME280;33579;50.058;18.130;2023-01-31T00:39:15;98725.78;;;1.75;100.00
47815;BME280;33579;50.058;18.130;2023-01-31T00:40:19;98721.00;;;1.52;100.00
47815;BME280;33579;50.058;18.130;2023-01-31T00:41:22;98715.16;;;1.49;100.00
47815;BME280;33579;50.058;18.130;2023-01-31T00:42:24;98726.25;;;1.51;100.00
47815;BME280;33579;50.058;18.130;2023-01-31T00:43:25;98726.06;;;1.54;100.00
47815;BME280;33579;50.058;18.130;2023-01-31T00:44:27;98712.97;;;1.57;100.00
47815;BME280;33579;50.058;18.130;2023-01-31T00:45:31;98704.16;;;1.60;100.00
47815;BME280;33579;50.058;18.130;2023-01-31T00:46:33;98714.03;;;1.53;100.00
47815;BME280;33579;50.058;18.130;2023-01-31T00:47:36;98708.03;;;1.52;100.00
47815;BME280;33579;50.058;18.130;2023-01-31T00:48:38;98706.09;;;1.56;100.00
47815;BME280;33579;50.058;18.130;2023-01-31T00:49:39;98696.38;;;1.60;100.00
47815;BME280;33579;50.058;18.130;2023-01-31T00:50:41;98698.06;;;1.61;100.00
47815;BME280;33579;50.058;18.130;2023-01-31T00:51:44;98692.09;;;1.59;100.00
47815;BME280;33579;50.058;18.130;2023-01-31T00:52:46;98705.44;;;1.52;100.00
47815;BME280;33579;50.058;18.130;2023-01-31T00:53:48;98702.38;;;1.46;100.00
47815;BME280;33579;50.058;18.130;2023-01-31T00:54:50;98705.63;;;1.49;100.00
47815;BME280;33579;50.058;18.130;2023-01-31T00:55:53;98707.94;;;1.54;100.00
47815;BME280;33579;50.058;18.130;2023-01-31T00:56:55;98700.72;;;1.59;100.00
47815;BME280;33579;50.058;18.130;2023-01-31T00:57:56;98703.66;;;1.53;100.00
47815;BME280;33579;50.058;18.130;2023-01-31T00:58:58;98700.31;;;1.51;100.00
47815;BME280;33579;50.058;18.130;2023-01-31T01:00:00;98704.25;;;1.58;100.00
47815;BME280;33579;50.058;18.130;2023-01-31T01:02:14;98705.00;;;1.60;100.00
47815;BME280;33579;50.058;18.130;2023-01-31T01:03:16;98705.72;;;1.62;100.00
47815;BME280;33579;50.058;18.130;2023-01-31T01:04:17;98698.63;;;1.66;100.00
47815;BME280;33579;50.058;18.130;2023-01-31T01:05:19;98704.00;;;1.63;100.00
47815;BME280;33579;50.058;18.130;2023-01-31T01:06:22;98706.59;;;1.63;100.00
47815;BME280;33579;50.058;18.130;2023-01-31T01:07:24;98707.22;;;1.66;100.00
47815;BME280;33579;50.058;18.130;2023-01-31T01:08:27;98707.50;;;1.62;100.00
47815;BME280;33579;50.058;18.130;2023-01-31T01:09:29;98709.72;;;1.68;100.00
47815;BME280;33579;50.058;18.130;2023-01-31T01:10:31;98707.72;;;1.73;100.00
47815;BME280;33579;50.058;18.130;2023-01-31T01:11:35;98706.50;;;1.79;100.00
47815;BME280;33579;50.058;18.130;2023-01-31T01:12:37;98702.06;;;1.81;100.00
47815;BME280;33579;50.058;18.130;2023-01-31T01:13:40;98708.94;;;1.82;100.00
47815;BME280;33579;50.058;18.130;2023-01-31T01:14:41;98709.59;;;1.86;100.00
47815;BME280;33579;50.058;18.130;2023-01-31T01:15:43;98716.72;;;1.82;100.00
47815;BME280;33579;50.058;18.130;2023-01-31T01:16:45;98716.78;;;1.80;100.00
47815;BME280;33579;50.058;18.130;2023-01-31T01:17:46;98720.13;;;1.82;100.00
47815;BME280;33579;50.058;18.130;2023-01-31T01:18:48;98728.03;;;1.81;100.00
47815;BME280;33579;50.058;18.130;2023-01-31T01:19:50;98719.38;;;1.80;100.00
47815;BME280;33579;50.058;18.130;2023-01-31T01:20:51;98725.25;;;1.84;100.00
47815;BME280;33579;50.058;18.130;2023-01-31T01:21:54;98731.91;;;1.88;100.00
47815;BME280;33579;50.058;18.130;2023-01-31T01:22:58;98727.84;;;1.84;100.00
47815;BME280;33579;50.058;18.130;2023-01-31T01:24:00;98724.50;;;1.82;100.00
47815;BME280;33579;50.058;18.130;2023-01-31T01:25:02;98728.66;;;1.85;100.00
47815;BME280;33579;50.058;18.130;2023-01-31T01:26:04;98726.72;;;1.88;100.00
47815;BME280;33579;50.058;18.130;2023-01-31T01:27:06;98721.34;;;1.91;100.00
47815;BME280;33579;50.058;18.130;2023-01-31T01:28:07;98719.50;;;1.93;100.00
47815;BME280;33579;50.058;18.130;2023-01-31T01:29:09;98723.50;;;1.99;100.00
47815;BME280;33579;50.058;18.130;2023-01-31T01:30:11;98727.50;;;2.05;100.00
47815;BME280;33579;50.058;18.130;2023-01-31T01:31:13;98727.78;;;2.00;100.00
47815;BME280;33579;50.058;18.130;2023-01-31T01:32:15;98731.84;;;2.04;100.00
47815;BME280;33579;50.058;18.130;2023-01-31T01:33:17;98732.31;;;2.11;100.00
47815;BME280;33579;50.058;18.130;2023-01-31T01:34:18;98733.72;;;2.17;100.00
47815;BME280;33579;50.058;18.130;2023-01-31T01:35:20;98736.13;;;2.20;100.00
47815;BME280;33579;50.058;18.130;2023-01-31T01:36:22;98735.19;;;2.21;100.00
47815;BME280;33579;50.058;18.130;2023-01-31T01:37:24;98733.34;;;2.23;100.00
47815;BME280;33579;50.058;18.130;2023-01-31T01:38:26;98740.75;;;2.29;100.00
47815;BME280;33579;50.058;18.130;2023-01-31T01:39:27;98739.94;;;2.29;100.00
47815;BME280;33579;50.058;18.130;2023-01-31T01:40:36;98746.88;;;2.28;100.00
47815;BME280;33579;50.058;18.130;2023-01-31T01:41:39;98741.16;;;2.23;100.00
47815;BME280;33579;50.058;18.130;2023-01-31T01:42:42;98741.69;;;2.14;100.00
47815;BME280;33579;50.058;18.130;2023-01-31T01:43:50;98748.63;;;2.13;100.00
47815;BME280;33579;50.058;18.130;2023-01-31T01:44:55;98744.28;;;2.14;100.00
47815;BME280;33579;50.058;18.130;2023-01-31T01:45:58;98760.50;;;2.17;100.00
47815;BME280;33579;50.058;18.130;2023-01-31T01:47:00;98757.16;;;2.15;100.00
47815;BME280;33579;50.058;18.130;2023-01-31T01:48:05;98757.81;;;2.19;100.00
47815;BME280;33579;50.058;18.130;2023-01-31T01:51:26;98753.81;;;2.13;100.00
47815;BME280;33579;50.058;18.130;2023-01-31T01:52:29;98757.34;;;2.12;100.00
47815;BME280;33579;50.058;18.130;2023-01-31T01:53:34;98757.34;;;2.12;100.00
47815;BME280;33579;50.058;18.130;2023-01-31T01:54:48;98767.25;;;2.05;100.00
47815;BME280;33579;50.058;18.130;2023-01-31T01:55:57;98758.63;;;2.05;100.00
47815;BME280;33579;50.058;18.130;2023-01-31T01:57:02;98761.97;;;2.07;100.00
47815;BME280;33579;50.058;18.130;2023-01-31T01:58:13;98759.47;;;2.05;100.00
47815;BME280;33579;50.058;18.130;2023-01-31T01:59:39;98756.97;;;2.04;100.00
47815;BME280;33579;50.058;18.130;2023-01-31T02:00:42;98753.88;;;1.97;100.00
47815;BME280;33579;50.058;18.130;2023-01-31T02:01:45;98757.13;;;2.01;100.00
47815;BME280;33579;50.058;18.130;2023-01-31T02:02:51;98748.59;;;1.99;100.00
47815;BME280;33579;50.058;18.130;2023-01-31T02:03:56;98758.06;;;2.00;100.00
47815;BME280;33579;50.058;18.130;2023-01-31T02:04:57;98755.38;;;2.01;100.00
47815;BME280;33579;50.058;18.130;2023-01-31T02:06:03;98755.38;;;2.01;100.00
47815;BME280;33579;50.058;18.130;2023-01-31T02:07:06;98755.38;;;2.01;100.00
47815;BME280;33579;50.058;18.130;2023-01-31T02:08:08;98765.66;;;2.03;100.00
47815;BME280;33579;50.058;18.130;2023-01-31T02:09:18;98770.84;;;2.03;100.00
47815;BME280;33579;50.058;18.130;2023-01-31T02:10:26;98764.75;;;2.04;100.00
47815;BME280;33579;50.058;18.130;2023-01-31T02:11:30;98765.84;;;2.00;100.00
47815;BME280;33579;50.058;18.130;2023-01-31T02:12:33;98758.06;;;2.00;100.00
47815;BME280;33579;50.058;18.130;2023-01-31T02:13:37;98758.91;;;2.00;100.00
47815;BME280;33579;50.058;18.130;2023-01-31T02:14:47;98765.84;;;2.00;100.00
47815;BME280;33579;50.058;18.130;2023-01-31T02:15:49;98760.31;;;2.06;100.00
47815;BME280;33579;50.058;18.130;2023-01-31T02:16:51;98772.16;;;2.10;100.00
47815;BME280;33579;50.058;18.130;2023-01-31T02:17:52;98772.09;;;2.12;100.00
47815;BME280;33579;50.058;18.130;2023-01-31T02:18:55;98768.72;;;2.09;100.00
47815;BME280;33579;50.058;18.130;2023-01-31T02:20:17;98771.44;;;2.08;100.00
47815;BME280;33579;50.058;18.130;2023-01-31T02:23:10;98767.34;;;2.04;100.00
47815;BME280;33579;50.058;18.130;2023-01-31T02:33:15;98765.56;;;2.04;100.00
47815;BME280;33579;50.058;18.130;2023-01-31T02:34:36;98772.34;;;2.07;100.00
47815;BME280;33579;50.058;18.130;2023-01-31T02:36:13;98772.44;;;2.05;100.00
47815;BME280;33579;50.058;18.130;2023-01-31T02:37:49;98774.03;;;2.08;100.00
47815;BME280;33579;50.058;18.130;2023-01-31T02:41:37;98781.81;;;2.08;100.00
47815;BME280;33579;50.058;18.130;2023-01-31T02:43:10;98784.22;;;2.11;100.00
47815;BME280;33579;50.058;18.130;2023-01-31T02:44:24;98787.66;;;2.12;100.00
47815;BME280;33579;50.058;18.130;2023-01-31T02:45:39;98792.00;;;2.11;100.00
47815;BME280;33579;50.058;18.130;2023-01-31T02:46:58;98803.84;;;2.15;100.00
47815;BME280;33579;50.058;18.130;2023-01-31T02:48:12;98799.72;;;2.13;100.00
47815;BME280;33579;50.058;18.130;2023-01-31T02:50:38;98803.22;;;2.12;100.00
47815;BME280;33579;50.058;18.130;2023-01-31T02:51:45;98798.03;;;2.12;100.00
47815;BME280;33579;50.058;18.130;2023-01-31T02:52:58;98799.03;;;2.09;100.00
47815;BME280;33579;50.058;18.130;2023-01-31T02:54:09;98797.72;;;2.02;100.00
47815;BME280;33579;50.058;18.130;2023-01-31T02:55:25;98798.38;;;2.05;100.00
47815;BME280;33579;50.058;18.130;2023-01-31T02:56:33;98806.09;;;2.07;100.00
47815;BME280;33579;50.058;18.130;2023-01-31T02:57:39;98802.75;;;2.05;100.00
47815;BME280;33579;50.058;18.130;2023-01-31T03:00:13;98801.16;;;2.02;100.00
47815;BME280;33579;50.058;18.130;2023-01-31T03:01:20;98806.09;;;2.07;100.00
47815;BME280;33579;50.058;18.130;2023-01-31T03:02:23;98813.75;;;2.08;100.00
47815;BME280;33579;50.058;18.130;2023-01-31T03:03:31;98818.13;;;2.08;100.00
47815;BME280;33579;50.058;18.130;2023-01-31T03:04:34;98818.94;;;2.08;100.00
47815;BME280;33579;50.058;18.130;2023-01-31T03:05:35;98825.25;;;2.04;100.00
47815;BME280;33579;50.058;18.130;2023-01-31T03:06:51;98823.50;;;2.05;100.00
47815;BME280;33579;50.058;18.130;2023-01-31T03:07:58;98830.53;;;2.03;100.00
47815;BME280;33579;50.058;18.130;2023-01-31T03:09:09;98840.66;;;2.07;100.00
47815;BME280;33579;50.058;18.130;2023-01-31T03:10:49;98839.72;;;2.08;100.00
47815;BME280;33579;50.058;18.130;2023-01-31T03:12:03;98852.13;;;2.03;100.00
47815;BME280;33579;50.058;18.130;2023-01-31T03:16:16;98864.25;;;2.03;100.00
47815;BME280;33579;50.058;18.130;2023-01-31T03:18:39;98866.22;;;1.99;100.00
47815;BME280;33579;50.058;18.130;2023-01-31T03:21:32;98868.13;;;1.95;100.00
47815;BME280;33579;50.058;18.130;2023-01-31T03:22:29;98867.13;;;1.98;100.00
47815;BME280;33579;50.058;18.130;2023-01-31T03:23:32;98865.09;;;2.03;100.00
47815;BME280;33579;50.058;18.130;2023-01-31T03:24:35;98864.63;;;1.96;100.00
47815;BME280;33579;50.058;18.130;2023-01-31T03:25:39;98859.44;;;1.96;100.00
47815;BME280;33579;50.058;18.130;2023-01-31T03:26:43;98866.84;;;2.03;100.00
47815;BME280;33579;50.058;18.130;2023-01-31T03:27:50;98867.88;;;2.00;100.00
47815;BME280;33579;50.058;18.130;2023-01-31T03:28:54;98870.56;;;1.99;100.00
47815;BME280;33579;50.058;18.130;2023-01-31T03:30:03;98856.09;;;1.94;100.00
47815;BME280;33579;50.058;18.130;2023-01-31T03:31:22;98867.22;;;1.96;100.00
47815;BME280;33579;50.058;18.130;2023-01-31T03:32:29;98867.13;;;1.98;100.00
47815;BME280;33579;50.058;18.130;2023-01-31T03:33:43;98873.06;;;2.00;100.00
47815;BME280;33579;50.058;18.130;2023-01-31T03:34:45;98876.59;;;1.99;100.00
47815;BME280;33579;50.058;18.130;2023-01-31T03:35:54;98868.97;;;1.96;100.00
47815;BME280;33579;50.058;18.130;2023-01-31T03:38:24;98874.06;;;1.98;100.00
47815;BME280;33579;50.058;18.130;2023-01-31T03:40:57;98885.19;;;2.00;100.00
47815;BME280;33579;50.058;18.130;2023-01-31T03:42:08;98892.16;;;1.99;100.00
47815;BME280;33579;50.058;18.130;2023-01-31T03:43:25;98893.84;;;2.00;100.00
47815;BME280;33579;50.058;18.130;2023-01-31T03:44:43;98899.03;;;2.00;100.00
47815;BME280;33579;50.058;18.130;2023-01-31T03:46:14;98898.28;;;1.98;100.00
47815;BME280;33579;50.058;18.130;2023-01-31T03:47:35;98906.97;;;1.97;100.00
47815;BME280;33579;50.058;18.130;2023-01-31T03:48:41;98898.28;;;1.98;100.00
47815;BME280;33579;50.058;18.130;2023-01-31T03:49:45;98905.22;;;1.98;100.00
47815;BME280;33579;50.058;18.130;2023-01-31T03:50:56;98899.34;;;1.94;100.00
47815;BME280;33579;50.058;18.130;2023-01-31T03:52:06;98901.88;;;1.95;100.00
47815;BME280;33579;50.058;18.130;2023-01-31T03:53:24;98906.06;;;1.98;100.00
47815;BME280;33579;50.058;18.130;2023-01-31T03:54:31;98908.47;;;2.01;100.00
47815;BME280;33579;50.058;18.130;2023-01-31T03:55:40;98917.25;;;1.99;100.00
47815;BME280;33579;50.058;18.130;2023-01-31T03:56:46;98915.03;;;1.92;100.00
47815;BME280;33579;50.058;18.130;2023-01-31T03:57:53;98917.34;;;1.97;100.00
47815;BME280;33579;50.058;18.130;2023-01-31T03:59:02;98905.22;;;1.98;100.00
47815;BME280;33579;50.058;18.130;2023-01-31T04:00:09;98916.75;;;1.92;100.00
47815;BME280;33579;50.058;18.130;2023-01-31T04:01:17;98915.09;;;1.91;100.00
47815;BME280;33579;50.058;18.130;2023-01-31T04:02:22;98920.03;;;1.95;100.00
47815;BME280;33579;50.058;18.130;2023-01-31T04:04:50;98911.50;;;1.93;100.00
47815;BME280;33579;50.058;18.130;2023-01-31T04:05:54;98919.78;;;2.00;100.00
47815;BME280;33579;50.058;18.130;2023-01-31T04:06:56;98923.31;;;1.99;100.00
47815;BME280;33579;50.058;18.130;2023-01-31T04:07:58;98920.84;;;1.96;100.00
47815;BME280;33579;50.058;18.130;2023-01-31T04:09:02;98919.28;;;1.93;100.00
47815;BME280;33579;50.058;18.130;2023-01-31T04:10:08;98923.56;;;1.94;100.00
47815;BME280;33579;50.058;18.130;2023-01-31T04:11:13;98927.72;;;1.97;100.00
47815;BME280;33579;50.058;18.130;2023-01-31T04:12:15;98924.88;;;2.02;100.00
47815;BME280;33579;50.058;18.130;2023-01-31T04:13:16;98925.97;;;1.98;100.00
47815;BME280;33579;50.058;18.130;2023-01-31T04:14:18;98926.16;;;1.94;100.00
47815;BME280;33579;50.058;18.130;2023-01-31T04:15:20;98924.13;;;2.00;100.00
47815;BME280;33579;50.058;18.130;2023-01-31T04:16:22;98922.13;;;2.05;100.00
47815;BME280;33579;50.058;18.130;2023-01-31T04:17:24;98924.78;;;2.03;100.00
47815;BME280;33579;50.058;18.130;2023-01-31T04:18:25;98925.97;;;1.98;100.00
47815;BME280;33579;50.058;18.130;2023-01-31T04:19:27;98933.75;;;1.98;100.00
47815;BME280;33579;50.058;18.130;2023-01-31T04:20:29;98929.41;;;1.98;100.00
47815;BME280;33579;50.058;18.130;2023-01-31T04:21:30;98932.16;;;1.95;100.00
47815;BME280;33579;50.058;18.130;2023-01-31T04:22:32;98933.94;;;1.94;100.00
47815;BME280;33579;50.058;18.130;2023-01-31T04:23:34;98934.75;;;1.95;100.00
47815;BME280;33579;50.058;18.130;2023-01-31T04:24:37;98926.03;;;1.96;100.00
47815;BME280;33579;50.058;18.130;2023-01-31T04:25:38;98933.94;;;1.94;100.00
47815;BME280;33579;50.058;18.130;2023-01-31T04:26:40;98952.00;;;1.96;100.00
47815;BME280;33579;50.058;18.130;2023-01-31T04:27:42;98942.53;;;1.95;100.00
47815;BME280;33579;50.058;18.130;2023-01-31T04:28:43;98934.50;;;2.00;100.00
47815;BME280;33579;50.058;18.130;2023-01-31T04:29:45;98938.88;;;1.99;100.00
47815;BME280;33579;50.058;18.130;2023-01-31T04:30:52;98928.63;;;1.96;100.00
47815;BME280;33579;50.058;18.130;2023-01-31T04:31:53;98938.94;;;1.98;100.00
47815;BME280;33579;50.058;18.130;2023-01-31T04:32:55;98924.28;;;1.96;100.00
47815;BME280;33579;50.058;18.130;2023-01-31T04:33:57;98944.19;;;1.96;100.00
47815;BME280;33579;50.058;18.130;2023-01-31T04:34:58;98929.75;;;1.92;100.00
47815;BME280;33579;50.058;18.130;2023-01-31T04:36:03;98936.59;;;1.93;100.00
47815;BME280;33579;50.058;18.130;2023-01-31T04:37:04;98940.78;;;1.95;100.00
47815;BME280;33579;50.058;18.130;2023-01-31T04:38:06;98940.28;;;1.89;100.00
47815;BME280;33579;50.058;18.130;2023-01-31T04:39:09;98945.66;;;1.86;100.00
47815;BME280;33579;50.058;18.130;2023-01-31T04:40:12;98948.16;;;1.87;100.00
47815;BME280;33579;50.058;18.130;2023-01-31T04:41:13;98927.31;;;1.89;100.00
47815;BME280;33579;50.058;18.130;2023-01-31T04:42:15;98939.69;;;1.83;100.00
47815;BME280;33579;50.058;18.130;2023-01-31T04:43:17;98951.84;;;1.83;100.00
47815;BME280;33579;50.058;18.130;2023-01-31T04:44:18;98950.66;;;1.89;100.00
47815;BME280;33579;50.058;18.130;2023-01-31T04:45:20;98962.13;;;1.85;100.00
47815;BME280;33579;50.058;18.130;2023-01-31T04:46:22;98962.47;;;1.78;100.00
47815;BME280;33579;50.058;18.130;2023-01-31T04:47:24;98964.13;;;1.79;100.00
47815;BME280;33579;50.058;18.130;2023-01-31T04:48:25;98962.28;;;1.81;100.00
47815;BME280;33579;50.058;18.130;2023-01-31T04:49:29;98964.06;;;1.81;100.00
47815;BME280;33579;50.058;18.130;2023-01-31T04:50:31;98965.81;;;1.80;100.00
47815;BME280;33579;50.058;18.130;2023-01-31T04:51:32;98963.28;;;1.79;100.00
47815;BME280;33579;50.058;18.130;2023-01-31T04:52:34;98965.88;;;1.79;100.00
47815;BME280;33579;50.058;18.130;2023-01-31T04:53:36;98965.75;;;1.82;100.00
47815;BME280;33579;50.058;18.130;2023-01-31T04:54:37;98969.31;;;1.79;100.00
47815;BME280;33579;50.058;18.130;2023-01-31T04:55:39;98967.91;;;1.74;100.00
47815;BME280;33579;50.058;18.130;2023-01-31T04:56:41;98975.75;;;1.72;100.00
47815;BME280;33579;50.058;18.130;2023-01-31T04:57:42;98962.03;;;1.70;100.00
47815;BME280;33579;50.058;18.130;2023-01-31T04:58:44;98976.28;;;1.63;100.00
47815;BME280;33579;50.058;18.130;2023-01-31T04:59:45;98965.78;;;1.64;100.00
47815;BME280;33579;50.058;18.130;2023-01-31T05:00:47;98979.63;;;1.65;100.00
47815;BME280;33579;50.058;18.130;2023-01-31T05:01:49;98963.06;;;1.67;100.00
47815;BME280;33579;50.058;18.130;2023-01-31T05:02:50;98965.22;;;1.59;100.00
47815;BME280;33579;50.058;18.130;2023-01-31T05:03:53;98969.31;;;1.63;100.00
47815;BME280;33579;50.058;18.130;2023-01-31T05:04:54;98958.38;;;1.58;100.00
47815;BME280;33579;50.058;18.130;2023-01-31T05:05:56;98964.63;;;1.54;100.00
47815;BME280;33579;50.058;18.130;2023-01-31T05:06:57;98959.28;;;1.57;100.00
47815;BME280;33579;50.058;18.130;2023-01-31T05:07:59;98965.03;;;1.46;100.00
47815;BME280;33579;50.058;18.130;2023-01-31T05:09:00;98964.44;;;1.41;100.00
47815;BME280;33579;50.058;18.130;2023-01-31T05:10:02;98970.31;;;1.45;100.00
47815;BME280;33579;50.058;18.130;2023-01-31T05:11:04;98963.13;;;1.50;100.00
47815;BME280;33579;50.058;18.130;2023-01-31T05:12:07;98969.03;;;1.52;100.00
47815;BME280;33579;50.058;18.130;2023-01-31T05:13:09;98972.06;;;1.44;100.00
47815;BME280;33579;50.058;18.130;2023-01-31T05:14:11;98974.06;;;1.39;100.00
47815;BME280;33579;50.058;18.130;2023-01-31T05:15:13;98981.66;;;1.42;100.00
47815;BME280;33579;50.058;18.130;2023-01-31T05:16:15;98977.34;;;1.43;100.00
47815;BME280;33579;50.058;18.130;2023-01-31T05:17:16;98981.66;;;1.42;100.00
47815;BME280;33579;50.058;18.130;2023-01-31T05:18:18;98975.91;;;1.37;100.00
47815;BME280;33579;50.058;18.130;2023-01-31T05:19:19;98977.72;;;1.35;100.00
47815;BME280;33579;50.058;18.130;2023-01-31T05:20:21;98987.31;;;1.33;100.00
47815;BME280;33579;50.058;18.130;2023-01-31T05:21:22;98985.66;;;1.32;100.00
47815;BME280;33579;50.058;18.130;2023-01-31T05:22:25;98994.34;;;1.31;100.00
47815;BME280;33579;50.058;18.130;2023-01-31T05:23:26;98990.78;;;1.33;100.00
47815;BME280;33579;50.058;18.130;2023-01-31T05:24:30;98990.16;;;1.28;100.00
47815;BME280;33579;50.058;18.130;2023-01-31T05:25:34;98991.81;;;1.29;100.00
47815;BME280;33579;50.058;18.130;2023-01-31T05:26:36;98995.44;;;1.26;100.00
47815;BME280;33579;50.058;18.130;2023-01-31T05:27:38;98998.25;;;1.22;100.00
47815;BME280;33579;50.058;18.130;2023-01-31T05:28:39;98992.97;;;1.23;100.00
47815;BME280;33579;50.058;18.130;2023-01-31T05:29:41;98995.66;;;1.22;100.00
47815;BME280;33579;50.058;18.130;2023-01-31T05:30:43;98988.88;;;1.19;100.00
47815;BME280;33579;50.058;18.130;2023-01-31T05:31:45;98990.50;;;1.22;100.00
47815;BME280;33579;50.058;18.130;2023-01-31T05:32:47;98996.50;;;1.22;100.00
47815;BME280;33579;50.058;18.130;2023-01-31T05:33:48;98996.34;;;1.25;100.00
47815;BME280;33579;50.058;18.130;2023-01-31T05:34:50;99010.69;;;1.15;100.00
47815;BME280;33579;50.058;18.130;2023-01-31T05:35:52;98998.34;;;1.20;100.00
47815;BME280;33579;50.058;18.130;2023-01-31T05:36:54;99003.50;;;1.20;100.00
47815;BME280;33579;50.058;18.130;2023-01-31T05:37:55;99006.09;;;1.20;100.00
47815;BME280;33579;50.058;18.130;2023-01-31T05:38:57;99015.66;;;1.20;100.00
47815;BME280;33579;50.058;18.130;2023-01-31T05:39:58;99016.56;;;1.19;100.00
47815;BME280;33579;50.058;18.130;2023-01-31T05:41:00;99023.44;;;1.20;100.00
47815;BME280;33579;50.058;18.130;2023-01-31T05:42:02;99019.81;;;1.22;100.00
47815;BME280;33579;50.058;18.130;2023-01-31T05:43:03;99021.44;;;1.25;100.00
47815;BME280;33579;50.058;18.130;2023-01-31T05:44:05;99017.84;;;1.28;100.00
47815;BME280;33579;50.058;18.130;2023-01-31T05:45:08;99018.16;;;1.21;100.00
47815;BME280;33579;50.058;18.130;2023-01-31T05:46:10;99013.97;;;1.19;100.00
47815;BME280;33579;50.058;18.130;2023-01-31T05:47:12;99019.06;;;1.20;100.00
47815;BME280;33579;50.058;18.130;2023-01-31T05:48:13;99024.09;;;1.23;100.00
47815;BME280;33579;50.058;18.130;2023-01-31T05:49:15;99020.50;;;1.26;100.00
47815;BME280;33579;50.058;18.130;2023-01-31T05:50:17;99024.78;;;1.27;100.00
47815;BME280;33579;50.058;18.130;2023-01-31T05:51:19;99029.03;;;1.28;100.00
47815;BME280;33579;50.058;18.130;2023-01-31T05:52:20;99026.78;;;1.22;100.00
47815;BME280;33579;50.058;18.130;2023-01-31T05:53:22;99032.88;;;1.21;100.00
47815;BME280;33579;50.058;18.130;2023-01-31T05:54:24;99038.75;;;1.24;100.00
47815;BME280;33579;50.058;18.130;2023-01-31T05:55:26;99039.78;;;1.20;100.00
47815;BME280;33579;50.058;18.130;2023-01-31T05:56:27;99039.19;;;1.15;100.00
47815;BME280;33579;50.058;18.130;2023-01-31T05:57:29;99037.31;;;1.19;100.00
47815;BME280;33579;50.058;18.130;2023-01-31T05:58:31;99038.22;;;1.18;100.00
47815;BME280;33579;50.058;18.130;2023-01-31T05:59:33;99044.22;;;1.18;100.00
47815;BME280;33579;50.058;18.130;2023-01-31T06:00:35;99054.53;;;1.20;100.00
47815;BME280;33579;50.058;18.130;2023-01-31T06:01:36;99048.31;;;1.22;100.00
47815;BME280;33579;50.058;18.130;2023-01-31T06:02:38;99055.34;;;1.20;100.00
47815;BME280;33579;50.058;18.130;2023-01-31T06:03:40;99058.09;;;1.17;100.00
47815;BME280;33579;50.058;18.130;2023-01-31T06:04:41;99067.31;;;1.23;100.00
47815;BME280;33579;50.058;18.130;2023-01-31T06:05:43;99056.19;;;1.21;100.00
47815;BME280;33579;50.058;18.130;2023-01-31T06:06:45;99065.81;;;1.19;100.00